Time;durP1;ratioP1;P1;durP2;ratioP2;P2;SDS_P1;SDS_P2;PMS_P1;PMS_P2;Temp;Humidity;BMP_temperature;BMP_pressure;BME280_temperature;BME280_humidity;BME280_pressure;Samples;Min_cycle;Max_cycle;Signal;HPM_P1;HPM_P2
2022/03/19 00:02:25;;;;;;;85.90;44.78;;;5.80;12.10;;;;;;7359284;19;20006;-60
2022/03/19 00:04:55;;;;;;;87.50;46.42;;;5.80;11.90;;;;;;7361703;19;20482;-62
2022/03/19 00:07:26;;;;;;;80.28;44.30;;;5.80;11.70;;;;;;7381184;19;20054;-61
2022/03/19 00:09:59;;;;;;;79.65;45.25;;;5.80;11.70;;;;;;7360152;19;20082;-62
2022/03/19 00:12:31;;;;;;;81.80;46.55;;;5.80;11.60;;;;;;7359501;19;20014;-61
2022/03/19 00:15:04;;;;;;;86.05;47.42;;;5.80;11.50;;;;;;7362025;19;20074;-61
2022/03/19 00:17:34;;;;;;;81.57;44.40;;;5.80;11.50;;;;;;7360760;19;20410;-61
2022/03/19 00:20:11;;;;;;;78.20;43.92;;;5.80;11.00;;;;;;7359858;19;20011;-62
2022/03/19 00:22:41;;;;;;;81.97;45.08;;;5.80;10.60;;;;;;7359328;19;20011;-61
2022/03/19 00:25:15;;;;;;;80.25;44.70;;;5.80;10.70;;;;;;7383202;19;20074;-61
2022/03/19 00:27:44;;;;;;;81.15;43.65;;;5.80;10.50;;;;;;7358935;19;20014;-61
2022/03/19 00:30:15;;;;;;;75.97;42.70;;;5.80;10.10;;;;;;7361645;19;20087;-62
2022/03/19 00:32:44;;;;;;;80.70;46.13;;;5.80;9.50;;;;;;7360740;19;20056;-61
2022/03/19 00:35:15;;;;;;;77.50;45.03;;;5.80;9.50;;;;;;7360720;19;20443;-60
2022/03/19 00:37:46;;;;;;;77.00;43.95;;;5.80;9.50;;;;;;7359491;19;20010;-62
2022/03/19 00:40:23;;;;;;;77.20;43.88;;;5.80;9.50;;;;;;7381173;19;20021;-60
2022/03/19 00:42:53;;;;;;;81.38;43.67;;;5.80;9.50;;;;;;7359677;19;20006;-62
2022/03/19 00:45:22;;;;;;;79.50;44.63;;;5.80;9.50;;;;;;7362128;19;20114;-62
2022/03/19 00:47:52;;;;;;;76.97;42.45;;;5.70;9.80;;;;;;7358754;19;20018;-61
2022/03/19 00:50:22;;;;;;;82.55;44.35;;;5.70;9.40;;;;;;7359526;19;20010;-62
2022/03/19 00:52:52;;;;;;;76.53;43.95;;;5.70;9.40;;;;;;7358445;19;20014;-62
2022/03/19 00:55:25;;;;;;;77.93;44.22;;;5.70;9.40;;;;;;7381274;19;20739;-62
2022/03/19 00:57:54;;;;;;;74.65;42.85;;;5.70;9.40;;;;;;7358670;19;20007;-60
2022/03/19 01:00:26;;;;;;;80.60;45.30;;;5.70;9.40;;;;;;7358584;19;20010;-60
2022/03/19 01:02:58;;;;;;;77.65;44.80;;;5.70;9.40;;;;;;7358752;19;20021;-60
2022/03/19 01:05:28;;;;;;;78.40;43.47;;;5.70;9.40;;;;;;7360270;19;20513;-60
2022/03/19 01:07:58;;;;;;;79.28;43.72;;;5.70;9.40;;;;;;7358417;19;20055;-62
2022/03/19 01:10:32;;;;;;;74.32;42.50;;;5.70;9.40;;;;;;7362971;19;20017;-61
2022/03/19 01:13:02;;;;;;;75.18;43.58;;;5.60;9.40;;;;;;7380878;19;20082;-62
2022/03/19 01:15:33;;;;;;;80.40;42.58;;;5.60;9.30;;;;;;7361029;19;20021;-62
2022/03/19 01:18:03;;;;;;;78.53;42.90;;;5.60;9.30;;;;;;7358648;19;20071;-60
2022/03/19 01:20:33;;;;;;;76.95;43.10;;;5.50;9.30;;;;;;7361572;19;20014;-60
2022/03/19 01:23:05;;;;;;;75.55;42.65;;;5.50;9.30;;;;;;7366214;19;20015;-60
2022/03/19 01:25:38;;;;;;;77.35;44.30;;;5.60;8.90;;;;;;7365725;19;20034;-61
2022/03/19 01:28:09;;;;;;;77.38;42.40;;;5.50;9.70;;;;;;7387493;19;20018;-61
2022/03/19 01:30:39;;;;;;;85.60;43.95;;;5.60;8.50;;;;;;7367502;19;20014;-61
2022/03/19 01:33:09;;;;;;;74.28;42.42;;;5.60;8.30;;;;;;7365418;19;20015;-61
2022/03/19 01:35:39;;;;;;;78.05;42.15;;;5.60;7.80;;;;;;7366360;19;20502;-62
2022/03/19 01:38:09;;;;;;;74.18;41.75;;;5.60;7.90;;;;;;7366267;19;20423;-61
2022/03/19 01:40:41;;;;;;;73.22;41.30;;;5.60;7.60;;;;;;7363486;19;20053;-61
2022/03/19 01:43:11;;;;;;;71.20;40.30;;;5.60;7.10;;;;;;7386655;19;20022;-61
2022/03/19 01:45:41;;;;;;;72.82;40.78;;;5.70;6.60;;;;;;7367406;19;20011;-61
2022/03/19 01:48:11;;;;;;;77.40;40.20;;;5.70;6.40;;;;;;7364517;19;20470;-61
2022/03/19 01:50:41;;;;;;;70.13;39.15;;;5.70;6.10;;;;;;7364967;19;20011;-62
2022/03/19 01:53:11;;;;;;;74.10;41.58;;;5.70;6.20;;;;;;7363887;19;20074;-61
2022/03/19 01:55:44;;;;;;;64.82;39.25;;;5.70;6.30;;;;;;7365056;19;20082;-61
2022/03/19 01:58:14;;;;;;;69.85;38.55;;;5.70;5.80;;;;;;7386131;19;20017;-61
2022/03/19 02:00:44;;;;;;;72.18;40.03;;;5.70;5.40;;;;;;7363791;19;20081;-62
2022/03/19 02:03:15;;;;;;;63.28;37.63;;;5.70;5.50;;;;;;7362586;19;20014;-61
2022/03/19 02:05:45;;;;;;;69.97;40.63;;;5.70;5.70;;;;;;7364686;19;20015;-62
2022/03/19 02:08:15;;;;;;;68.72;40.08;;;5.60;5.70;;;;;;7363491;19;20011;-62
2022/03/19 02:10:47;;;;;;;67.47;38.80;;;5.70;5.70;;;;;;7367549;19;20032;-61
2022/03/19 02:13:17;;;;;;;66.82;39.85;;;5.60;5.70;;;;;;7384427;19;20029;-62
2022/03/19 02:15:48;;;;;;;70.97;40.22;;;5.60;6.00;;;;;;7365179;19;20385;-62
2022/03/19 02:18:18;;;;;;;67.57;39.30;;;5.60;5.80;;;;;;7362332;19;20410;-62
2022/03/19 02:20:51;;;;;;;72.80;40.33;;;5.60;5.70;;;;;;7366308;19;20014;-62
2022/03/19 02:26:10;;;;;;;69.05;40.65;;;5.50;5.70;;;;;;7366753;19;20042;-61
2022/03/19 02:28:39;;;;;;;66.15;38.88;;;5.50;5.60;;;;;;7363787;19;20015;-62
2022/03/19 02:31:09;;;;;;;69.65;40.40;;;5.50;5.60;;;;;;7386753;19;20017;-62
2022/03/19 02:33:39;;;;;;;73.45;41.15;;;5.50;5.60;;;;;;7361714;19;20032;-62
2022/03/19 02:36:10;;;;;;;68.25;38.38;;;5.50;5.60;;;;;;7364728;19;20022;-61
2022/03/19 02:38:42;;;;;;;72.40;40.42;;;5.40;5.60;;;;;;7361387;19;20014;-61
2022/03/19 02:41:12;;;;;;;67.38;38.33;;;5.40;5.60;;;;;;7363683;19;20007;-61
2022/03/19 02:43:42;;;;;;;70.00;38.75;;;5.50;5.20;;;;;;7362033;19;20966;-61
2022/03/19 02:46:12;;;;;;;67.40;37.95;;;5.50;5.30;;;;;;7385479;19;20014;-61
2022/03/19 02:48:42;;;;;;;66.68;38.83;;;5.50;5.20;;;;;;7360379;19;20018;-61
2022/03/19 02:51:13;;;;;;;62.78;36.08;;;5.50;4.80;;;;;;7365369;19;20459;-61
2022/03/19 02:53:46;;;;;;;61.47;35.85;;;5.50;4.30;;;;;;7362556;19;20435;-61
2022/03/19 02:56:16;;;;;;;69.15;38.22;;;5.60;4.10;;;;;;7366512;19;20503;-61
2022/03/19 02:58:46;;;;;;;63.03;38.78;;;5.50;4.20;;;;;;7363140;19;20500;-61
2022/03/19 03:01:16;;;;;;;71.18;38.83;;;5.60;4.00;;;;;;7385160;19;20022;-61
2022/03/19 03:03:48;;;;;;;75.05;39.85;;;5.50;4.30;;;;;;7361077;19;20021;-61
2022/03/19 03:06:17;;;;;;;72.43;39.17;;;5.50;4.20;;;;;;7365885;19;20069;-61
2022/03/19 03:08:50;;;;;;;67.55;36.72;;;5.50;4.30;;;;;;7360681;19;20055;-61
2022/03/19 03:11:20;;;;;;;65.95;38.00;;;5.50;3.90;;;;;;7365682;19;20018;-61
2022/03/19 03:13:50;;;;;;;66.07;38.88;;;5.50;3.40;;;;;;7362141;19;20010;-61
2022/03/19 03:16:20;;;;;;;66.82;37.53;;;5.50;3.40;;;;;;7387930;19;20078;-60
2022/03/19 03:18:50;;;;;;;71.45;38.50;;;5.50;3.30;;;;;;7359567;19;20043;-61
2022/03/19 03:21:20;;;;;;;66.60;37.58;;;5.50;3.50;;;;;;7363408;19;20420;-61
2022/03/19 03:23:53;;;;;;;61.33;37.13;;;5.50;3.30;;;;;;7360534;19;20014;-61
2022/03/19 03:26:24;;;;;;;67.88;39.75;;;5.50;2.90;;;;;;7365226;19;20041;-61
2022/03/19 03:28:54;;;;;;;69.95;37.90;;;5.50;2.60;;;;;;7360670;19;20014;-61
2022/03/19 03:31:24;;;;;;;67.70;36.45;;;5.50;2.70;;;;;;7385225;19;20089;-61
2022/03/19 03:33:58;;;;;;;69.07;39.00;;;5.50;2.50;;;;;;7359688;19;20021;-61
2022/03/19 03:36:28;;;;;;;71.97;38.05;;;5.50;2.10;;;;;;7364348;19;20010;-61
2022/03/19 03:39:01;;;;;;;66.53;35.95;;;5.50;2.20;;;;;;7359481;19;20502;-61
2022/03/19 03:41:31;;;;;;;69.05;39.28;;;5.50;1.90;;;;;;7362509;19;20009;-61
2022/03/19 03:44:01;;;;;;;69.57;36.55;;;5.40;2.20;;;;;;7359066;19;20053;-61
2022/03/19 03:46:30;;;;;;;67.20;38.15;;;5.50;1.90;;;;;;7363996;19;20014;-62
2022/03/19 03:49:00;;;;;;;66.10;37.92;;;5.40;1.80;;;;;;7379758;19;20014;-61
2022/03/19 03:51:31;;;;;;;71.47;37.97;;;5.40;1.80;;;;;;7363944;19;20023;-61
2022/03/19 03:54:04;;;;;;;65.00;37.70;;;5.40;1.90;;;;;;7359770;19;20006;-62
2022/03/19 03:56:33;;;;;;;67.60;38.47;;;5.40;1.80;;;;;;7363049;19;20694;-61
2022/03/19 03:59:04;;;;;;;65.35;35.72;;;5.40;1.70;;;;;;7358591;19;20010;-61
2022/03/19 04:01:34;;;;;;;64.50;35.85;;;5.40;1.80;;;;;;7362829;19;20006;-62
2022/03/19 04:04:04;;;;;;;62.00;36.75;;;5.40;1.80;;;;;;7381092;19;20030;-59
2022/03/19 04:06:34;;;;;;;64.97;36.38;;;5.40;1.70;;;;;;7363289;19;20016;-60
2022/03/19 04:09:06;;;;;;;68.32;36.78;;;5.40;1.20;;;;;;7359159;19;20014;-60
2022/03/19 04:11:36;;;;;;;59.97;35.53;;;5.40;1.20;;;;;;7363632;19;20382;-60
2022/03/19 04:14:06;;;;;;;65.72;36.03;;;5.30;1.60;;;;;;7359809;19;20425;-60
2022/03/19 04:16:37;;;;;;;60.38;35.15;;;5.30;1.80;;;;;;7363655;19;20010;-60
2022/03/19 04:19:07;;;;;;;64.65;38.00;;;5.30;1.50;;;;;;7379623;19;20032;-60
2022/03/19 04:21:37;;;;;;;62.20;36.25;;;5.20;1.70;;;;;;7362227;19;20011;-60
2022/03/19 04:24:10;;;;;;;60.60;36.97;;;5.20;1.70;;;;;;7359759;19;20006;-60
2022/03/19 04:26:40;;;;;;;69.82;37.63;;;5.20;1.70;;;;;;7362093;19;20083;-60
2022/03/19 04:29:10;;;;;;;66.03;36.80;;;5.10;1.90;;;;;;7358329;19;20007;-60
2022/03/19 04:31:40;;;;;;;61.80;36.35;;;5.00;1.90;;;;;;7363030;19;20010;-60
2022/03/19 04:34:10;;;;;;;68.07;36.67;;;5.00;2.20;;;;;;7380593;19;20057;-61
2022/03/19 04:36:40;;;;;;;66.38;37.20;;;5.00;2.10;;;;;;7362633;19;20348;-60
2022/03/19 04:39:13;;;;;;;62.58;36.53;;;5.00;2.30;;;;;;7354841;19;20019;-60
2022/03/19 04:41:43;;;;;;;68.70;39.28;;;5.00;1.60;;;;;;7360961;19;20018;-60
2022/03/19 04:44:15;;;;;;;71.05;37.75;;;5.10;1.70;;;;;;7358256;19;20015;-60
2022/03/19 04:46:45;;;;;;;68.05;37.53;;;5.10;1.70;;;;;;7360827;19;20010;-60
2022/03/19 04:49:16;;;;;;;63.72;34.42;;;5.10;1.00;;;;;;7378997;19;20019;-60
2022/03/19 04:51:46;;;;;;;67.32;36.72;;;5.10;1.00;;;;;;7362603;19;20039;-60
2022/03/19 04:54:20;;;;;;;65.40;37.28;;;5.10;1.10;;;;;;7356723;19;20020;-60
2022/03/19 04:56:50;;;;;;;62.27;37.33;;;5.00;1.60;;;;;;7368719;19;20098;-60
2022/03/19 04:59:19;;;;;;;66.78;36.72;;;5.00;1.60;;;;;;7365000;19;20011;-60
2022/03/19 05:01:49;;;;;;;64.13;35.88;;;5.00;1.60;;;;;;7367557;19;20538;-60
2022/03/19 05:04:19;;;;;;;67.45;36.50;;;5.00;1.60;;;;;;7385775;19;20015;-60
2022/03/19 05:06:49;;;;;;;64.47;36.78;;;4.90;1.50;;;;;;7368923;19;20007;-60
2022/03/19 05:12:05;;;;;;;;;;;4.90;1.60;;;;;;7369569;19;20010;-60
2022/03/19 05:14:34;;;;;;;69.72;39.25;;;4.90;1.80;;;;;;7364924;19;19915;-60
2022/03/19 05:17:05;;;;;;;70.55;39.97;;;4.80;2.10;;;;;;7368371;19;20021;-61
2022/03/19 05:19:35;;;;;;;65.38;37.45;;;4.80;2.40;;;;;;7363641;19;20783;-61
2022/03/19 05:22:05;;;;;;;70.00;39.22;;;4.80;2.50;;;;;;7389460;19;20537;-61
2022/03/19 05:24:38;;;;;;;66.20;37.22;;;4.70;2.60;;;;;;7364227;19;20020;-61
2022/03/19 05:27:07;;;;;;;70.95;38.58;;;4.70;3.00;;;;;;7366865;19;20010;-61
2022/03/19 05:29:37;;;;;;;64.57;37.95;;;4.60;3.20;;;;;;7363538;19;20019;-60
2022/03/19 05:32:09;;;;;;;71.35;38.15;;;4.60;3.50;;;;;;7369046;19;20007;-60
2022/03/19 05:34:39;;;;;;;66.45;38.15;;;4.60;3.50;;;;;;7366073;19;20040;-60
2022/03/19 05:37:09;;;;;;;68.50;38.60;;;4.60;3.80;;;;;;7388752;19;20018;-60
2022/03/19 05:39:42;;;;;;;67.82;38.50;;;4.60;3.40;;;;;;7361983;19;20029;-60
2022/03/19 05:42:14;;;;;;;67.72;37.97;;;4.60;3.80;;;;;;7364917;19;20014;-61
2022/03/19 05:44:44;;;;;;;67.68;38.78;;;4.60;3.80;;;;;;7367339;19;20036;-60
2022/03/19 05:47:14;;;;;;;77.80;38.50;;;4.60;3.50;;;;;;7367284;19;20074;-61
2022/03/19 05:49:44;;;;;;;66.82;37.42;;;4.70;3.00;;;;;;7362165;19;20528;-60
2022/03/19 05:52:15;;;;;;;70.57;39.42;;;4.70;2.80;;;;;;7388193;19;20165;-60
2022/03/19 05:54:48;;;;;;;69.35;38.10;;;4.70;2.40;;;;;;7365391;19;20494;-60
2022/03/19 05:57:18;;;;;;;74.63;38.90;;;4.70;2.40;;;;;;7365741;19;20097;-60
2022/03/19 05:59:48;;;;;;;63.10;35.53;;;4.80;2.10;;;;;;7362497;19;20022;-60
2022/03/19 06:02:18;;;;;;;64.00;36.85;;;4.80;1.90;;;;;;7363273;19;20017;-60
2022/03/19 06:04:48;;;;;;;69.85;37.67;;;4.80;1.60;;;;;;7366522;19;20003;-61
2022/03/19 06:07:18;;;;;;;70.15;38.95;;;4.80;1.50;;;;;;7385619;19;20013;-60
2022/03/19 06:09:50;;;;;;;63.72;36.83;;;4.90;1.50;;;;;;7360949;19;20471;-61
2022/03/19 06:12:21;;;;;;;67.10;37.53;;;4.90;1.50;;;;;;7362799;19;20020;-60
2022/03/19 06:14:54;;;;;;;65.75;37.10;;;4.90;1.60;;;;;;7366333;19;20014;-61
2022/03/19 06:17:24;;;;;;;65.90;36.10;;;4.90;1.50;;;;;;7366503;19;20190;-60
2022/03/19 06:19:54;;;;;;;65.25;36.28;;;5.00;1.00;;;;;;7361170;19;20530;-61
2022/03/19 06:22:24;;;;;;;69.43;37.20;;;5.00;1.00;;;;;;7383743;19;20014;-61
2022/03/19 06:24:56;;;;;;;62.88;34.78;;;5.00;1.00;;;;;;7365062;19;20011;-61
2022/03/19 06:27:26;;;;;;;60.13;35.40;;;5.10;1.00;;;;;;7364999;19;20462;-61
2022/03/19 06:29:56;;;;;;;65.82;38.13;;;5.10;1.00;;;;;;7359269;19;20025;-61
2022/03/19 06:32:26;;;;;;;65.38;35.55;;;5.20;1.00;;;;;;7360896;19;20085;-61
2022/03/19 06:34:56;;;;;;;67.18;34.55;;;5.30;1.00;;;;;;7364792;19;20010;-61
2022/03/19 06:37:24;;;;;;;61.63;35.63;;;5.30;1.00;;;;;;7387495;19;20814;-61
2022/03/19 06:39:57;;;;;;;60.42;34.60;;;5.40;1.00;;;;;;7360539;19;20651;-61
2022/03/19 06:42:27;;;;;;;65.37;35.90;;;5.40;1.00;;;;;;7360772;19;20154;-61
2022/03/19 06:44:57;;;;;;;64.10;35.00;;;5.50;1.00;;;;;;7364766;19;20117;-61
2022/03/19 06:47:27;;;;;;;61.45;35.15;;;5.40;1.00;;;;;;7365839;19;20013;-61
2022/03/19 06:49:57;;;;;;;67.68;36.03;;;5.30;1.00;;;;;;7361068;19;20015;-62
2022/03/19 06:52:28;;;;;;;58.28;33.20;;;5.30;1.00;;;;;;7385802;19;20017;-64
2022/03/19 06:55:02;;;;;;;63.13;34.42;;;5.50;1.00;;;;;;7386146;19;20367;-62
2022/03/19 06:57:32;;;;;;;63.85;35.83;;;5.50;1.00;;;;;;7364562;19;20016;-61
2022/03/19 07:00:01;;;;;;;57.08;32.40;;;5.40;1.00;;;;;;7364079;19;20426;-61
2022/03/19 07:02:31;;;;;;;65.35;33.80;;;5.50;1.00;;;;;;7362441;19;20647;-62
2022/03/19 07:05:01;;;;;;;57.60;33.63;;;5.60;1.00;;;;;;7361818;19;20014;-61
2022/03/19 07:07:31;;;;;;;62.92;34.70;;;5.70;1.00;;;;;;7364634;19;20011;-62
2022/03/19 07:10:04;;;;;;;59.05;33.88;;;5.80;1.00;;;;;;7384809;19;20018;-62
2022/03/19 07:12:42;;;;;;;60.05;32.53;;;6.00;1.00;;;;;;7361782;19;20010;-61
2022/03/19 07:15:14;;;;;;;61.13;32.13;;;6.00;1.00;;;;;;7361872;19;20010;-60
2022/03/19 07:17:45;;;;;;;57.38;32.72;;;6.00;1.00;;;;;;7362702;19;20197;-62
2022/03/19 07:20:16;;;;;;;57.20;32.72;;;6.10;1.00;;;;;;7362793;19;21033;-61
2022/03/19 07:22:50;;;;;;;58.05;31.33;;;6.20;1.00;;;;;;7361711;19;20007;-61
2022/03/19 07:25:24;;;;;;;59.70;33.67;;;6.10;1.00;;;;;;7382490;19;20018;-60
2022/03/19 07:27:56;;;;;;;57.00;33.50;;;6.20;1.00;;;;;;7362986;19;20019;-61
2022/03/19 07:30:26;;;;;;;57.35;31.55;;;6.40;1.00;;;;;;7361046;19;20044;-61
2022/03/19 07:32:56;;;;;;;55.88;32.35;;;6.30;1.00;;;;;;7361085;19;20010;-61
2022/03/19 07:35:26;;;;;;;58.45;32.55;;;6.60;1.00;;;;;;7361239;19;20018;-61
2022/03/19 07:37:57;;;;;;;55.63;30.90;;;6.50;1.00;;;;;;7363269;19;20025;-61
2022/03/19 07:43:15;;;;;;;50.72;29.73;;;6.70;1.00;;;;;;7379633;19;20014;-61
2022/03/19 07:45:51;;;;;;;54.63;29.08;;;6.70;1.00;;;;;;7362228;19;20343;-60
2022/03/19 07:48:22;;;;;;;47.95;27.92;;;6.90;1.00;;;;;;7362357;19;20010;-60
2022/03/19 07:50:57;;;;;;;49.88;28.13;;;6.90;1.00;;;;;;7361192;19;20493;-60
2022/03/19 07:53:27;;;;;;;49.67;28.95;;;6.90;1.00;;;;;;7358426;19;20007;-60
2022/03/19 07:56:00;;;;;;;47.08;26.83;;;7.00;1.00;;;;;;7362989;19;20093;-61
2022/03/19 07:58:30;;;;;;;45.17;27.85;;;7.00;1.00;;;;;;7362446;19;20411;-61
2022/03/19 08:01:00;;;;;;;45.85;27.08;;;7.00;1.00;;;;;;7380884;19;20018;-60
2022/03/19 08:03:30;;;;;;;43.05;25.88;;;7.10;1.00;;;;;;7355814;19;20058;-61
2022/03/19 08:06:00;;;;;;;46.58;26.33;;;7.00;1.00;;;;;;7362119;19;20082;-61
2022/03/19 08:08:30;;;;;;;42.85;23.95;;;7.00;1.00;;;;;;7362210;19;20046;-62
2022/03/19 08:11:03;;;;;;;41.75;25.38;;;7.10;1.00;;;;;;7360029;19;20006;-61
2022/03/19 08:13:33;;;;;;;39.67;25.55;;;7.30;1.00;;;;;;7356776;19;20021;-61
2022/03/19 08:16:03;;;;;;;43.05;24.77;;;7.50;1.00;;;;;;7384529;19;20021;-61
2022/03/19 08:18:33;;;;;;;43.22;24.00;;;7.40;1.00;;;;;;7362237;19;20027;-61
2022/03/19 08:21:03;;;;;;;41.72;23.98;;;7.50;1.00;;;;;;7359285;19;20366;-61
2022/03/19 08:23:34;;;;;;;43.20;24.63;;;7.40;1.00;;;;;;7356051;19;20434;-61
2022/03/19 08:26:06;;;;;;;44.47;24.15;;;7.50;1.00;;;;;;7362255;19;20060;-62
2022/03/19 08:28:36;;;;;;;43.55;25.98;;;7.50;1.00;;;;;;7361839;19;20090;-61
2022/03/19 08:31:06;;;;;;;41.95;23.30;;;7.50;1.00;;;;;;7388539;19;20022;-61
2022/03/19 08:33:36;;;;;;;36.78;22.88;;;7.70;1.00;;;;;;7364308;19;20007;-61
2022/03/19 08:36:06;;;;;;;40.75;24.80;;;7.80;1.00;;;;;;7369947;19;20125;-61
2022/03/19 08:41:21;;;;;;;39.35;24.75;;;7.90;1.00;;;;;;7367865;19;20573;-61
2022/03/19 08:43:51;;;;;;;39.85;22.70;;;7.80;1.00;;;;;;7361898;19;20494;-60
2022/03/19 08:46:21;;;;;;;38.50;22.63;;;7.90;1.00;;;;;;7391277;19;20474;-60
2022/03/19 08:48:51;;;;;;;44.08;25.15;;;7.90;1.00;;;;;;7368326;19;20007;-60
2022/03/19 08:54:03;;;;;;;39.85;23.05;;;8.00;1.00;;;;;;7362582;19;20066;-61
2022/03/19 08:56:37;;;;;;;42.95;24.25;;;8.20;1.00;;;;;;7369893;19;20017;-62
2022/03/19 08:59:07;;;;;;;37.60;23.02;;;8.30;1.00;;;;;;7364849;19;20383;-61
2022/03/19 09:01:37;;;;;;;44.47;24.88;;;8.20;1.00;;;;;;7370026;19;20086;-61
2022/03/19 09:04:07;;;;;;;39.85;23.92;;;8.40;1.00;;;;;;7383896;19;20485;-60
2022/03/19 09:06:38;;;;;;;38.67;24.83;;;8.30;1.00;;;;;;7363727;19;20012;-61
2022/03/19 09:09:08;;;;;;;43.42;26.00;;;8.30;1.00;;;;;;7364382;19;20094;-61
2022/03/19 09:11:41;;;;;;;39.78;24.83;;;8.50;1.00;;;;;;7367842;19;20074;-61
2022/03/19 09:14:11;;;;;;;43.83;25.45;;;8.70;1.00;;;;;;7360821;19;20035;-61
2022/03/19 09:16:42;;;;;;;45.33;25.80;;;8.70;1.00;;;;;;7367825;19;20043;-61
2022/03/19 09:19:12;;;;;;;41.88;24.75;;;8.70;1.00;;;;;;7384685;19;20011;-61
2022/03/19 09:21:42;;;;;;;45.35;25.45;;;8.70;1.00;;;;;;7366747;19;20013;-61
2022/03/19 09:24:15;;;;;;;44.22;25.15;;;8.70;1.00;;;;;;7357874;19;20013;-61
2022/03/19 09:26:47;;;;;;;41.38;25.60;;;8.80;1.00;;;;;;7367473;19;20014;-61
2022/03/19 09:29:17;;;;;;;46.03;26.23;;;9.00;1.00;;;;;;7363639;19;20077;-60
2022/03/19 09:31:47;;;;;;;45.75;27.30;;;9.10;1.00;;;;;;7368010;19;20095;-60
2022/03/19 09:34:17;;;;;;;40.20;25.30;;;9.10;1.00;;;;;;7380503;19;20015;-60
2022/03/19 09:36:48;;;;;;;44.92;27.80;;;9.00;1.00;;;;;;7365930;19;20593;-61
2022/03/19 09:39:19;;;;;;;46.58;26.67;;;9.20;1.00;;;;;;7362949;19;20035;-61
2022/03/19 09:41:51;;;;;;;41.05;27.55;;;9.20;1.00;;;;;;7366240;19;20077;-62
2022/03/19 09:44:21;;;;;;;47.33;26.75;;;9.40;1.00;;;;;;7358560;19;20464;-61
2022/03/19 09:46:51;;;;;;;48.80;28.92;;;9.60;1.00;;;;;;7365560;19;20074;-61
2022/03/19 09:49:21;;;;;;;45.92;28.77;;;9.40;1.00;;;;;;7383390;19;20018;-62
2022/03/19 09:51:55;;;;;;;46.92;28.50;;;9.20;1.00;;;;;;7365967;19;20019;-62
2022/03/19 09:54:26;;;;;;;49.95;28.48;;;9.70;1.00;;;;;;7356857;19;20006;-61
2022/03/19 09:56:58;;;;;;;47.45;27.55;;;9.50;1.00;;;;;;7365921;19;20082;-61
2022/03/19 09:59:29;;;;;;;49.88;29.35;;;9.60;1.00;;;;;;7361945;19;20125;-62
2022/03/19 10:01:59;;;;;;;45.58;27.73;;;9.60;1.00;;;;;;7366281;19;20074;-60
2022/03/19 10:04:32;;;;;;;45.17;28.75;;;9.80;1.00;;;;;;7359851;19;20078;-62
2022/03/19 10:09:45;;;;;;;53.70;29.90;;;9.70;1.00;;;;;;7363545;19;20031;-61
2022/03/19 10:12:20;;;;;;;47.55;28.77;;;9.80;1.00;;;;;;7364238;19;20018;-62
2022/03/19 10:14:51;;;;;;;41.40;26.45;;;9.90;1.00;;;;;;7362561;19;20007;-62
2022/03/19 10:17:29;;;;;;;44.40;27.17;;;10.00;1.00;;;;;;7363414;19;20082;-63
2022/03/19 10:20:06;;;;;;;42.63;26.88;;;10.00;1.00;;;;;;7361712;19;20360;-61
2022/03/19 10:22:36;;;;;;;43.60;26.75;;;9.90;1.00;;;;;;7363573;19;20033;-63
2022/03/19 10:25:10;;;;;;;41.67;26.42;;;9.80;1.00;;;;;;7383156;19;20085;-63
2022/03/19 10:27:44;;;;;;;40.08;26.60;;;10.00;1.00;;;;;;7365166;19;20014;-62
2022/03/19 10:30:19;;;;;;;53.85;26.17;;;10.10;1.00;;;;;;7361027;19;20010;-62
2022/03/19 10:32:53;;;;;;;39.13;25.15;;;10.00;1.00;;;;;;7359302;19;20006;-62
2022/03/19 10:35:29;;;;;;;44.40;25.75;;;10.30;1.00;;;;;;7361725;19;20078;-62
2022/03/19 10:38:00;;;;;;;41.50;25.95;;;10.60;1.00;;;;;;7362618;19;20014;-61
2022/03/19 10:40:40;;;;;;;37.33;22.73;;;10.60;1.00;;;;;;7363585;19;20029;-63
2022/03/19 10:43:14;;;;;;;37.40;23.38;;;10.50;1.00;;;;;;7381456;19;20070;-63
2022/03/19 10:45:46;;;;;;;36.97;22.43;;;10.60;1.00;;;;;;7362762;19;20027;-63
2022/03/19 10:48:20;;;;;;;28.70;17.27;;;10.70;1.00;;;;;;7363959;19;20013;-61
2022/03/19 10:50:51;;;;;;;31.33;17.63;;;10.30;1.00;;;;;;7363070;19;20030;-63
2022/03/19 10:53:22;;;;;;;29.33;17.42;;;10.60;1.00;;;;;;7359417;19;20684;-62
2022/03/19 10:55:53;;;;;;;22.88;14.32;;;10.60;1.00;;;;;;7364758;19;20020;-62
2022/03/19 10:58:25;;;;;;;24.77;14.77;;;10.50;1.00;;;;;;7385806;19;20018;-62
2022/03/19 11:01:09;;;;;;;23.70;15.23;;;10.50;1.00;;;;;;7362667;19;20014;-62
2022/03/19 11:03:42;;;;;;;24.55;15.50;;;10.60;1.00;;;;;;7359620;19;20021;-60
2022/03/19 11:06:13;;;;;;;23.77;15.53;;;10.70;1.00;;;;;;7364944;19;20427;-61
2022/03/19 11:08:45;;;;;;;26.67;15.95;;;10.80;1.00;;;;;;7362435;19;20964;-61
2022/03/19 11:11:20;;;;;;;27.60;16.33;;;11.00;1.00;;;;;;7361744;19;20015;-62
2022/03/19 11:13:54;;;;;;;26.58;14.20;;;10.90;1.00;;;;;;7357036;19;20014;-62
2022/03/19 11:16:25;;;;;;;23.10;14.77;;;11.00;1.00;;;;;;7386994;19;20014;-61
2022/03/19 11:18:57;;;;;;;23.08;14.68;;;11.00;1.00;;;;;;7363998;19;20012;-61
2022/03/19 11:21:30;;;;;;;23.38;13.13;;;11.40;1.00;;;;;;7362269;19;20023;-62
2022/03/19 11:24:08;;;;;;;22.13;13.25;;;11.20;1.00;;;;;;7358601;19;20006;-61
2022/03/19 11:26:39;;;;;;;18.17;11.93;;;10.70;1.00;;;;;;7363480;19;20010;-62
2022/03/19 11:29:13;;;;;;;17.63;10.30;;;11.20;1.00;;;;;;7363869;19;20018;-62
2022/03/19 11:31:43;;;;;;;17.15;11.10;;;11.50;1.00;;;;;;7361055;19;20438;-61
2022/03/19 11:34:19;;;;;;;19.73;11.52;;;11.40;1.00;;;;;;7378829;19;20021;-62
2022/03/19 11:36:59;;;;;;;18.73;11.20;;;11.40;1.00;;;;;;7362579;19;20015;-60
2022/03/19 11:39:30;;;;;;;16.27;9.23;;;11.30;1.00;;;;;;7357999;19;20007;-62
2022/03/19 11:42:00;;;;;;;17.20;10.77;;;11.30;1.00;;;;;;7362567;19;20098;-62
2022/03/19 11:44:32;;;;;;;17.48;10.73;;;11.30;1.00;;;;;;7356989;19;20014;-62
2022/03/19 11:47:06;;;;;;;18.58;10.73;;;11.80;1.00;;;;;;7363115;19;20010;-61
2022/03/19 11:49:52;;;;;;;16.90;10.77;;;12.00;1.00;;;;;;7356677;19;20035;-61
2022/03/19 11:52:52;;;;;;;18.83;10.05;;;11.60;1.00;;;;;;7381375;19;20026;-63
2022/03/19 11:55:29;;;;;;;16.77;9.88;;;11.20;1.00;;;;;;7255778;19;2005094;-62
2022/03/19 11:58:04;;;;;;;17.83;9.80;;;10.90;1.00;;;;;;7384515;19;20395;-61
2022/03/19 12:00:40;;;;;;;18.92;10.65;;;10.80;1.00;;;;;;7358306;19;20009;-63
2022/03/19 12:03:13;;;;;;;18.92;11.18;;;11.00;1.00;;;;;;7358577;19;20010;-63
2022/03/19 12:05:48;;;;;;;20.60;11.10;;;11.20;1.00;;;;;;7361544;19;20014;-62
2022/03/19 12:08:21;;;;;;;20.02;11.88;;;11.30;1.00;;;;;;7362042;19;20029;-62
2022/03/19 12:11:01;;;;;;;20.75;11.27;;;11.60;1.00;;;;;;7357401;19;20034;-61
2022/03/19 12:13:42;;;;;;;19.55;10.57;;;11.50;1.00;;;;;;7358183;19;20014;-62
2022/03/19 12:16:16;;;;;;;15.80;9.60;;;11.30;1.00;;;;;;7384280;19;20337;-63
2022/03/19 12:18:50;;;;;;;15.13;8.98;;;10.90;1.00;;;;;;7360795;19;20011;-61
2022/03/19 12:21:23;;;;;;;16.23;8.57;;;11.00;1.00;;;;;;7358048;19;20010;-62
2022/03/19 12:24:28;;;;;;;16.35;9.07;;;11.10;1.00;;;;;;7356935;19;20022;-61
2022/03/19 12:26:58;;;;;;;15.77;8.73;;;11.10;1.00;;;;;;7360226;19;20011;-63
2022/03/19 12:29:32;;;;;;;19.38;9.20;;;11.30;1.00;;;;;;7357664;19;20010;-62
2022/03/19 12:32:07;;;;;;;14.68;7.88;;;11.40;1.00;;;;;;7361431;19;20086;-62
2022/03/19 12:34:39;;;;;;;18.33;8.65;;;11.50;1.00;;;;;;7354315;19;20025;-62
2022/03/19 12:37:08;;;;;;;15.73;8.65;;;11.60;1.00;;;;;;7384106;19;20017;-62
2022/03/19 12:39:38;;;;;;;16.63;8.32;;;12.00;1.00;;;;;;7356571;19;20014;-60
2022/03/19 12:42:09;;;;;;;16.88;8.43;;;12.10;1.00;;;;;;7362642;19;20090;-62
2022/03/19 12:44:40;;;;;;;12.68;7.43;;;12.10;1.00;;;;;;7358016;19;20157;-62
2022/03/19 12:47:13;;;;;;;14.07;7.22;;;11.90;1.00;;;;;;7360025;19;20411;-62
2022/03/19 12:49:53;;;;;;;10.82;5.93;;;11.90;1.00;;;;;;7359659;19;20018;-62
2022/03/19 12:52:26;;;;;;;12.23;6.68;;;11.20;1.00;;;;;;7382121;19;20449;-61
2022/03/19 12:54:56;;;;;;;9.25;6.35;;;11.50;1.00;;;;;;7357208;19;20915;-61
2022/03/19 12:57:27;;;;;;;10.43;6.22;;;11.30;1.00;;;;;;7361732;19;20109;-61
2022/03/19 13:00:00;;;;;;;12.93;7.47;;;11.40;1.00;;;;;;7358481;19;20014;-61
2022/03/19 13:02:33;;;;;;;11.88;6.25;;;11.40;1.00;;;;;;7359581;19;20470;-62
2022/03/19 13:05:03;;;;;;;12.27;6.47;;;11.60;1.00;;;;;;7356402;19;20018;-60
2022/03/19 13:07:33;;;;;;;13.02;6.70;;;11.80;1.00;;;;;;7361059;19;20074;-61
2022/03/19 13:10:03;;;;;;;12.30;6.47;;;11.60;1.00;;;;;;7378508;19;20014;-62
2022/03/19 13:12:33;;;;;;;9.57;5.68;;;11.80;1.00;;;;;;7358820;19;20097;-62
2022/03/19 13:15:03;;;;;;;10.40;6.00;;;11.70;1.00;;;;;;7357107;19;20011;-61
2022/03/19 13:17:37;;;;;;;10.52;5.80;;;11.60;1.00;;;;;;7367763;19;20490;-61
2022/03/19 13:20:11;;;;;;;12.70;6.47;;;11.10;1.00;;;;;;7365370;19;20018;-61
2022/03/19 13:22:41;;;;;;;10.43;5.20;;;11.00;1.00;;;;;;7365918;19;20066;-60
2022/03/19 13:25:12;;;;;;;11.55;6.45;;;11.20;1.00;;;;;;7383305;19;20033;-61